sensor_id;sensor_type;location;lat;lon;timestamp;P1;durP1;ratioP1;P2;durP2;ratioP2
22334;SDS011;11335;43.848;25.958;2023-05-07T00:00:28;6.75;;;4.70;;
22334;SDS011;11335;43.848;25.958;2023-05-07T00:03:15;5.93;;;5.10;;
22334;SDS011;11335;43.848;25.958;2023-05-07T00:06:00;7.78;;;5.20;;
22334;SDS011;11335;43.848;25.958;2023-05-07T00:08:46;9.32;;;4.72;;
22334;SDS011;11335;43.848;25.958;2023-05-07T00:11:32;9.27;;;5.05;;
22334;SDS011;11335;43.848;25.958;2023-05-07T00:14:18;11.40;;;4.97;;
22334;SDS011;11335;43.848;25.958;2023-05-07T00:17:04;9.05;;;5.28;;
22334;SDS011;11335;43.848;25.958;2023-05-07T00:19:50;10.00;;;5.50;;
22334;SDS011;11335;43.848;25.958;2023-05-07T00:22:35;10.32;;;6.15;;
22334;SDS011;11335;43.848;25.958;2023-05-07T00:25:21;9.18;;;5.60;;
22334;SDS011;11335;43.848;25.958;2023-05-07T00:28:07;10.88;;;5.88;;
22334;SDS011;11335;43.848;25.958;2023-05-07T00:30:53;9.63;;;6.07;;
22334;SDS011;11335;43.848;25.958;2023-05-07T00:33:38;11.98;;;5.93;;
22334;SDS011;11335;43.848;25.958;2023-05-07T00:36:24;13.40;;;6.43;;
22334;SDS011;11335;43.848;25.958;2023-05-07T00:39:11;11.05;;;7.00;;
22334;SDS011;11335;43.848;25.958;2023-05-07T00:41:57;9.38;;;6.20;;
22334;SDS011;11335;43.848;25.958;2023-05-07T00:44:42;14.35;;;7.47;;
22334;SDS011;11335;43.848;25.958;2023-05-07T00:47:28;9.35;;;6.65;;
22334;SDS011;11335;43.848;25.958;2023-05-07T00:50:14;10.30;;;6.75;;
22334;SDS011;11335;43.848;25.958;2023-05-07T00:53:00;10.00;;;6.70;;
22334;SDS011;11335;43.848;25.958;2023-05-07T00:55:46;12.32;;;7.25;;
22334;SDS011;11335;43.848;25.958;2023-05-07T00:58:32;10.27;;;6.50;;
22334;SDS011;11335;43.848;25.958;2023-05-07T01:01:18;9.93;;;6.30;;
22334;SDS011;11335;43.848;25.958;2023-05-07T01:04:04;11.75;;;7.15;;
22334;SDS011;11335;43.848;25.958;2023-05-07T01:06:50;10.68;;;7.40;;
22334;SDS011;11335;43.848;25.958;2023-05-07T01:09:37;10.80;;;6.45;;
22334;SDS011;11335;43.848;25.958;2023-05-07T01:12:24;11.80;;;7.22;;
22334;SDS011;11335;43.848;25.958;2023-05-07T01:15:10;8.32;;;6.63;;
22334;SDS011;11335;43.848;25.958;2023-05-07T01:17:56;10.90;;;7.55;;
22334;SDS011;11335;43.848;25.958;2023-05-07T01:20:42;9.75;;;6.93;;
22334;SDS011;11335;43.848;25.958;2023-05-07T01:23:28;12.50;;;6.68;;
22334;SDS011;11335;43.848;25.958;2023-05-07T01:26:15;10.63;;;7.03;;
22334;SDS011;11335;43.848;25.958;2023-05-07T01:29:01;9.35;;;6.40;;
22334;SDS011;11335;43.848;25.958;2023-05-07T01:31:47;8.32;;;5.82;;
22334;SDS011;11335;43.848;25.958;2023-05-07T01:34:33;8.18;;;6.35;;
22334;SDS011;11335;43.848;25.958;2023-05-07T01:37:21;18.20;;;7.13;;
22334;SDS011;11335;43.848;25.958;2023-05-07T01:40:07;10.55;;;6.75;;
22334;SDS011;11335;43.848;25.958;2023-05-07T01:42:54;9.27;;;6.65;;
22334;SDS011;11335;43.848;25.958;2023-05-07T01:45:40;13.15;;;6.95;;
22334;SDS011;11335;43.848;25.958;2023-05-07T01:48:26;9.75;;;6.85;;
22334;SDS011;11335;43.848;25.958;2023-05-07T01:51:13;7.38;;;5.95;;
22334;SDS011;11335;43.848;25.958;2023-05-07T01:53:58;12.93;;;5.82;;
22334;SDS011;11335;43.848;25.958;2023-05-07T01:56:45;11.55;;;6.13;;
22334;SDS011;11335;43.848;25.958;2023-05-07T01:59:33;8.95;;;5.85;;
22334;SDS011;11335;43.848;25.958;2023-05-07T02:02:19;8.05;;;6.05;;
22334;SDS011;11335;43.848;25.958;2023-05-07T02:05:04;8.90;;;5.95;;
22334;SDS011;11335;43.848;25.958;2023-05-07T02:07:51;12.20;;;6.35;;
22334;SDS011;11335;43.848;25.958;2023-05-07T02:10:36;9.80;;;5.72;;
22334;SDS011;11335;43.848;25.958;2023-05-07T02:13:22;9.80;;;6.32;;
22334;SDS011;11335;43.848;25.958;2023-05-07T02:16:09;9.65;;;6.20;;
22334;SDS011;11335;43.848;25.958;2023-05-07T02:18:56;9.68;;;6.28;;
22334;SDS011;11335;43.848;25.958;2023-05-07T02:21:41;10.80;;;6.38;;
22334;SDS011;11335;43.848;25.958;2023-05-07T02:24:27;10.15;;;6.70;;
22334;SDS011;11335;43.848;25.958;2023-05-07T02:27:13;11.35;;;7.28;;
22334;SDS011;11335;43.848;25.958;2023-05-07T02:29:58;10.95;;;7.32;;
22334;SDS011;11335;43.848;25.958;2023-05-07T02:32:45;11.18;;;7.88;;
22334;SDS011;11335;43.848;25.958;2023-05-07T02:35:30;15.07;;;7.80;;
22334;SDS011;11335;43.848;25.958;2023-05-07T02:38:16;12.13;;;7.68;;
22334;SDS011;11335;43.848;25.958;2023-05-07T02:41:02;12.80;;;7.45;;
22334;SDS011;11335;43.848;25.958;2023-05-07T02:43:47;10.13;;;7.43;;
22334;SDS011;11335;43.848;25.958;2023-05-07T02:46:33;12.00;;;7.22;;
22334;SDS011;11335;43.848;25.958;2023-05-07T02:49:19;9.70;;;7.07;;
22334;SDS011;11335;43.848;25.958;2023-05-07T02:52:05;10.60;;;7.18;;
22334;SDS011;11335;43.848;25.958;2023-05-07T02:54:50;9.23;;;6.72;;
22334;SDS011;11335;43.848;25.958;2023-05-07T02:57:36;11.18;;;6.88;;
22334;SDS011;11335;43.848;25.958;2023-05-07T03:00:22;11.52;;;7.35;;
22334;SDS011;11335;43.848;25.958;2023-05-07T03:03:08;10.23;;;7.00;;
22334;SDS011;11335;43.848;25.958;2023-05-07T03:05:53;11.50;;;6.63;;
22334;SDS011;11335;43.848;25.958;2023-05-07T03:08:39;9.18;;;6.07;;
22334;SDS011;11335;43.848;25.958;2023-05-07T03:11:26;11.63;;;6.90;;
22334;SDS011;11335;43.848;25.958;2023-05-07T03:14:11;16.10;;;7.28;;
22334;SDS011;11335;43.848;25.958;2023-05-07T03:16:57;11.52;;;6.85;;
22334;SDS011;11335;43.848;25.958;2023-05-07T03:19:43;12.95;;;7.00;;
22334;SDS011;11335;43.848;25.958;2023-05-07T03:22:28;9.98;;;7.15;;
22334;SDS011;11335;43.848;25.958;2023-05-07T03:25:14;11.80;;;6.55;;
22334;SDS011;11335;43.848;25.958;2023-05-07T03:28:00;9.35;;;6.20;;
22334;SDS011;11335;43.848;25.958;2023-05-07T03:30:46;11.75;;;6.72;;
22334;SDS011;11335;43.848;25.958;2023-05-07T03:33:32;7.93;;;6.35;;
22334;SDS011;11335;43.848;25.958;2023-05-07T03:36:18;13.98;;;6.63;;
22334;SDS011;11335;43.848;25.958;2023-05-07T03:39:04;11.65;;;6.50;;
22334;SDS011;11335;43.848;25.958;2023-05-07T03:41:50;11.88;;;6.35;;
22334;SDS011;11335;43.848;25.958;2023-05-07T03:44:36;14.18;;;6.75;;
22334;SDS011;11335;43.848;25.958;2023-05-07T03:47:22;11.38;;;6.43;;
22334;SDS011;11335;43.848;25.958;2023-05-07T03:50:08;10.63;;;6.03;;
22334;SDS011;11335;43.848;25.958;2023-05-07T03:52:54;16.05;;;7.20;;
22334;SDS011;11335;43.848;25.958;2023-05-07T03:55:40;10.45;;;5.90;;
22334;SDS011;11335;43.848;25.958;2023-05-07T03:58:25;11.77;;;6.07;;
22334;SDS011;11335;43.848;25.958;2023-05-07T04:01:11;10.63;;;6.40;;
22334;SDS011;11335;43.848;25.958;2023-05-07T04:03:57;12.10;;;6.43;;
22334;SDS011;11335;43.848;25.958;2023-05-07T04:06:43;9.98;;;5.97;;
22334;SDS011;11335;43.848;25.958;2023-05-07T04:09:28;8.80;;;6.03;;
22334;SDS011;11335;43.848;25.958;2023-05-07T04:12:14;8.95;;;5.47;;
22334;SDS011;11335;43.848;25.958;2023-05-07T04:15:00;9.85;;;5.18;;
22334;SDS011;11335;43.848;25.958;2023-05-07T04:17:46;10.15;;;5.80;;
22334;SDS011;11335;43.848;25.958;2023-05-07T04:20:33;6.55;;;4.88;;
22334;SDS011;11335;43.848;25.958;2023-05-07T04:23:21;9.60;;;5.10;;
22334;SDS011;11335;43.848;25.958;2023-05-07T04:26:07;8.55;;;5.07;;
22334;SDS011;11335;43.848;25.958;2023-05-07T04:28:53;8.32;;;5.28;;
22334;SDS011;11335;43.848;25.958;2023-05-07T04:31:38;7.35;;;4.97;;
22334;SDS011;11335;43.848;25.958;2023-05-07T04:34:24;7.85;;;5.25;;
22334;SDS011;11335;43.848;25.958;2023-05-07T04:37:10;7.55;;;5.55;;
22334;SDS011;11335;43.848;25.958;2023-05-07T04:39:55;10.88;;;6.07;;
22334;SDS011;11335;43.848;25.958;2023-05-07T04:42:42;10.38;;;6.32;;
22334;SDS011;11335;43.848;25.958;2023-05-07T04:45:27;11.65;;;7.13;;
22334;SDS011;11335;43.848;25.958;2023-05-07T04:48:13;12.00;;;6.22;;
22334;SDS011;11335;43.848;25.958;2023-05-07T04:51:00;10.63;;;6.65;;
22334;SDS011;11335;43.848;25.958;2023-05-07T04:53:46;12.65;;;6.80;;
22334;SDS011;11335;43.848;25.958;2023-05-07T04:56:32;8.65;;;6.30;;
22334;SDS011;11335;43.848;25.958;2023-05-07T04:59:17;10.82;;;6.35;;
22334;SDS011;11335;43.848;25.958;2023-05-07T05:02:03;9.70;;;6.07;;
22334;SDS011;11335;43.848;25.958;2023-05-07T05:04:52;9.15;;;5.75;;
22334;SDS011;11335;43.848;25.958;2023-05-07T05:07:38;8.35;;;6.03;;
22334;SDS011;11335;43.848;25.958;2023-05-07T05:10:23;10.65;;;5.80;;
22334;SDS011;11335;43.848;25.958;2023-05-07T05:13:10;10.38;;;6.32;;
22334;SDS011;11335;43.848;25.958;2023-05-07T05:15:57;9.95;;;5.93;;
22334;SDS011;11335;43.848;25.958;2023-05-07T05:18:43;11.18;;;6.32;;
22334;SDS011;11335;43.848;25.958;2023-05-07T05:21:29;11.20;;;6.85;;
22334;SDS011;11335;43.848;25.958;2023-05-07T05:24:16;11.68;;;5.93;;
22334;SDS011;11335;43.848;25.958;2023-05-07T05:27:03;13.88;;;7.65;;
22334;SDS011;11335;43.848;25.958;2023-05-07T05:29:49;10.93;;;7.18;;
22334;SDS011;11335;43.848;25.958;2023-05-07T05:32:34;15.32;;;7.07;;
22334;SDS011;11335;43.848;25.958;2023-05-07T05:35:20;18.20;;;7.70;;
22334;SDS011;11335;43.848;25.958;2023-05-07T05:38:06;19.13;;;8.27;;
22334;SDS011;11335;43.848;25.958;2023-05-07T05:40:52;16.30;;;6.85;;
22334;SDS011;11335;43.848;25.958;2023-05-07T05:43:37;14.45;;;6.47;;
22334;SDS011;11335;43.848;25.958;2023-05-07T05:46:23;14.38;;;7.40;;
22334;SDS011;11335;43.848;25.958;2023-05-07T05:49:09;12.20;;;6.55;;
22334;SDS011;11335;43.848;25.958;2023-05-07T05:51:54;12.90;;;6.32;;
22334;SDS011;11335;43.848;25.958;2023-05-07T05:54:41;10.50;;;6.35;;
22334;SDS011;11335;43.848;25.958;2023-05-07T05:57:27;11.90;;;6.40;;
22334;SDS011;11335;43.848;25.958;2023-05-07T06:00:12;10.77;;;5.57;;
22334;SDS011;11335;43.848;25.958;2023-05-07T06:02:58;11.77;;;5.78;;
22334;SDS011;11335;43.848;25.958;2023-05-07T06:05:44;8.95;;;5.65;;
22334;SDS011;11335;43.848;25.958;2023-05-07T06:08:30;13.73;;;5.53;;
22334;SDS011;11335;43.848;25.958;2023-05-07T06:11:16;10.05;;;4.93;;
22334;SDS011;11335;43.848;25.958;2023-05-07T06:14:01;10.60;;;4.93;;
22334;SDS011;11335;43.848;25.958;2023-05-07T06:16:47;9.40;;;5.30;;
22334;SDS011;11335;43.848;25.958;2023-05-07T06:19:33;13.05;;;5.45;;
22334;SDS011;11335;43.848;25.958;2023-05-07T06:22:18;9.77;;;5.00;;
22334;SDS011;11335;43.848;25.958;2023-05-07T06:25:04;11.10;;;6.50;;
22334;SDS011;11335;43.848;25.958;2023-05-07T06:27:50;8.98;;;4.57;;
22334;SDS011;11335;43.848;25.958;2023-05-07T06:30:36;11.50;;;6.18;;
22334;SDS011;11335;43.848;25.958;2023-05-07T06:33:22;11.63;;;7.15;;
22334;SDS011;11335;43.848;25.958;2023-05-07T06:36:08;8.10;;;5.07;;
22334;SDS011;11335;43.848;25.958;2023-05-07T06:38:53;7.60;;;4.45;;
22334;SDS011;11335;43.848;25.958;2023-05-07T06:41:40;7.63;;;4.22;;
22334;SDS011;11335;43.848;25.958;2023-05-07T06:44:25;6.72;;;4.18;;
22334;SDS011;11335;43.848;25.958;2023-05-07T06:47:11;8.73;;;3.80;;
22334;SDS011;11335;43.848;25.958;2023-05-07T06:49:57;6.75;;;3.10;;
22334;SDS011;11335;43.848;25.958;2023-05-07T06:52:42;5.22;;;2.90;;
22334;SDS011;11335;43.848;25.958;2023-05-07T06:55:28;8.95;;;3.90;;
22334;SDS011;11335;43.848;25.958;2023-05-07T06:58:14;6.82;;;3.15;;
22334;SDS011;11335;43.848;25.958;2023-05-07T07:01:00;8.57;;;3.50;;
22334;SDS011;11335;43.848;25.958;2023-05-07T07:03:45;5.53;;;2.97;;
22334;SDS011;11335;43.848;25.958;2023-05-07T07:06:32;6.25;;;2.75;;
22334;SDS011;11335;43.848;25.958;2023-05-07T07:09:18;7.25;;;2.35;;
22334;SDS011;11335;43.848;25.958;2023-05-07T07:12:04;5.15;;;2.58;;
22334;SDS011;11335;43.848;25.958;2023-05-07T07:14:49;24.88;;;3.38;;
22334;SDS011;11335;43.848;25.958;2023-05-07T07:17:35;6.07;;;2.70;;
22334;SDS011;11335;43.848;25.958;2023-05-07T07:20:21;4.05;;;2.60;;
22334;SDS011;11335;43.848;25.958;2023-05-07T07:23:07;3.55;;;2.50;;
22334;SDS011;11335;43.848;25.958;2023-05-07T07:25:52;5.28;;;2.50;;
22334;SDS011;11335;43.848;25.958;2023-05-07T07:28:44;5.75;;;2.75;;
22334;SDS011;11335;43.848;25.958;2023-05-07T07:31:31;6.57;;;3.00;;
22334;SDS011;11335;43.848;25.958;2023-05-07T07:34:17;7.50;;;2.65;;
22334;SDS011;11335;43.848;25.958;2023-05-07T07:37:02;4.80;;;3.03;;
22334;SDS011;11335;43.848;25.958;2023-05-07T07:39:51;6.90;;;3.03;;
22334;SDS011;11335;43.848;25.958;2023-05-07T07:42:37;7.05;;;3.30;;
22334;SDS011;11335;43.848;25.958;2023-05-07T07:45:25;8.73;;;3.45;;
22334;SDS011;11335;43.848;25.958;2023-05-07T07:48:11;10.02;;;3.13;;
22334;SDS011;11335;43.848;25.958;2023-05-07T07:50:57;7.80;;;2.90;;
22334;SDS011;11335;43.848;25.958;2023-05-07T07:53:42;4.95;;;3.03;;
22334;SDS011;11335;43.848;25.958;2023-05-07T07:56:28;7.32;;;3.05;;
22334;SDS011;11335;43.848;25.958;2023-05-07T07:59:14;5.22;;;2.92;;
22334;SDS011;11335;43.848;25.958;2023-05-07T08:02:03;8.60;;;2.70;;
22334;SDS011;11335;43.848;25.958;2023-05-07T08:04:49;4.60;;;2.50;;
22334;SDS011;11335;43.848;25.958;2023-05-07T08:07:35;4.47;;;2.53;;
22334;SDS011;11335;43.848;25.958;2023-05-07T08:10:21;5.28;;;2.50;;
22334;SDS011;11335;43.848;25.958;2023-05-07T08:13:07;8.32;;;2.70;;
22334;SDS011;11335;43.848;25.958;2023-05-07T08:15:52;6.55;;;2.60;;
22334;SDS011;11335;43.848;25.958;2023-05-07T08:18:38;5.78;;;3.15;;
22334;SDS011;11335;43.848;25.958;2023-05-07T08:21:24;8.95;;;3.38;;
22334;SDS011;11335;43.848;25.958;2023-05-07T08:24:10;9.63;;;3.10;;
22334;SDS011;11335;43.848;25.958;2023-05-07T08:26:56;4.55;;;3.00;;
22334;SDS011;11335;43.848;25.958;2023-05-07T08:29:42;4.05;;;2.30;;
22334;SDS011;11335;43.848;25.958;2023-05-07T08:32:32;10.68;;;2.67;;
22334;SDS011;11335;43.848;25.958;2023-05-07T08:35:18;6.20;;;2.67;;
22334;SDS011;11335;43.848;25.958;2023-05-07T08:38:04;7.43;;;2.47;;
22334;SDS011;11335;43.848;25.958;2023-05-07T08:40:49;3.33;;;2.13;;
22334;SDS011;11335;43.848;25.958;2023-05-07T08:43:35;7.00;;;2.50;;
22334;SDS011;11335;43.848;25.958;2023-05-07T08:46:23;3.42;;;2.58;;
22334;SDS011;11335;43.848;25.958;2023-05-07T08:49:11;4.22;;;2.33;;
22334;SDS011;11335;43.848;25.958;2023-05-07T08:51:56;5.70;;;2.42;;
22334;SDS011;11335;43.848;25.958;2023-05-07T08:54:43;4.72;;;2.45;;
22334;SDS011;11335;43.848;25.958;2023-05-07T08:57:29;5.60;;;2.58;;
22334;SDS011;11335;43.848;25.958;2023-05-07T09:00:15;4.32;;;2.50;;
22334;SDS011;11335;43.848;25.958;2023-05-07T09:03:01;6.10;;;2.63;;
22334;SDS011;11335;43.848;25.958;2023-05-07T09:05:47;5.63;;;2.30;;
22334;SDS011;11335;43.848;25.958;2023-05-07T09:08:33;7.78;;;2.03;;
22334;SDS011;11335;43.848;25.958;2023-05-07T09:11:19;3.53;;;2.10;;
22334;SDS011;11335;43.848;25.958;2023-05-07T09:14:06;3.67;;;2.00;;
22334;SDS011;11335;43.848;25.958;2023-05-07T09:16:53;2.53;;;1.90;;
22334;SDS011;11335;43.848;25.958;2023-05-07T09:19:39;2.83;;;2.03;;
22334;SDS011;11335;43.848;25.958;2023-05-07T09:22:25;6.35;;;2.20;;
22334;SDS011;11335;43.848;25.958;2023-05-07T09:25:11;5.97;;;2.15;;
22334;SDS011;11335;43.848;25.958;2023-05-07T09:27:57;4.20;;;2.30;;
22334;SDS011;11335;43.848;25.958;2023-05-07T09:30:43;5.03;;;2.20;;
22334;SDS011;11335;43.848;25.958;2023-05-07T09:33:29;10.63;;;2.95;;
22334;SDS011;11335;43.848;25.958;2023-05-07T09:36:15;9.82;;;3.08;;
22334;SDS011;11335;43.848;25.958;2023-05-07T09:39:01;4.93;;;2.05;;
22334;SDS011;11335;43.848;25.958;2023-05-07T09:41:47;7.85;;;3.10;;
22334;SDS011;11335;43.848;25.958;2023-05-07T09:44:39;5.45;;;2.22;;
22334;SDS011;11335;43.848;25.958;2023-05-07T09:47:25;5.68;;;2.35;;
22334;SDS011;11335;43.848;25.958;2023-05-07T09:50:17;4.25;;;2.67;;
22334;SDS011;11335;43.848;25.958;2023-05-07T09:53:04;4.55;;;2.20;;
22334;SDS011;11335;43.848;25.958;2023-05-07T09:55:51;6.65;;;2.20;;
22334;SDS011;11335;43.848;25.958;2023-05-07T09:58:38;4.43;;;2.10;;
22334;SDS011;11335;43.848;25.958;2023-05-07T10:01:26;3.63;;;2.13;;
22334;SDS011;11335;43.848;25.958;2023-05-07T10:04:13;4.20;;;2.20;;
22334;SDS011;11335;43.848;25.958;2023-05-07T10:06:59;5.35;;;2.28;;
22334;SDS011;11335;43.848;25.958;2023-05-07T10:09:46;5.60;;;2.40;;
22334;SDS011;11335;43.848;25.958;2023-05-07T10:12:32;5.82;;;2.47;;
22334;SDS011;11335;43.848;25.958;2023-05-07T10:15:23;4.68;;;2.45;;
22334;SDS011;11335;43.848;25.958;2023-05-07T10:18:10;3.47;;;2.00;;
22334;SDS011;11335;43.848;25.958;2023-05-07T10:20:59;8.68;;;2.47;;
22334;SDS011;11335;43.848;25.958;2023-05-07T10:24:08;4.82;;;2.25;;
22334;SDS011;11335;43.848;25.958;2023-05-07T10:27:00;6.72;;;2.30;;
22334;SDS011;11335;43.848;25.958;2023-05-07T10:32:55;6.75;;;2.58;;
22334;SDS011;11335;43.848;25.958;2023-05-07T10:35:50;3.60;;;2.13;;
22334;SDS011;11335;43.848;25.958;2023-05-07T10:38:36;5.20;;;2.58;;
22334;SDS011;11335;43.848;25.958;2023-05-07T10:41:22;6.13;;;2.55;;
22334;SDS011;11335;43.848;25.958;2023-05-07T10:44:08;3.88;;;2.58;;
22334;SDS011;11335;43.848;25.958;2023-05-07T10:47:27;6.15;;;2.28;;
22334;SDS011;11335;43.848;25.958;2023-05-07T11:02:15;3.70;;;2.30;;
22334;SDS011;11335;43.848;25.958;2023-05-07T11:05:18;4.10;;;2.20;;
22334;SDS011;11335;43.848;25.958;2023-05-07T11:08:07;4.18;;;2.38;;
22334;SDS011;11335;43.848;25.958;2023-05-07T11:10:55;5.40;;;2.95;;
22334;SDS011;11335;43.848;25.958;2023-05-07T11:13:44;3.97;;;2.00;;
22334;SDS011;11335;43.848;25.958;2023-05-07T11:16:31;3.25;;;2.30;;
22334;SDS011;11335;43.848;25.958;2023-05-07T11:19:33;3.45;;;2.10;;
22334;SDS011;11335;43.848;25.958;2023-05-07T11:25:21;5.22;;;2.42;;
22334;SDS011;11335;43.848;25.958;2023-05-07T11:28:08;4.88;;;2.40;;
22334;SDS011;11335;43.848;25.958;2023-05-07T11:30:56;3.40;;;2.47;;
22334;SDS011;11335;43.848;25.958;2023-05-07T11:33:43;7.60;;;2.35;;
22334;SDS011;11335;43.848;25.958;2023-05-07T11:36:31;4.15;;;2.22;;
22334;SDS011;11335;43.848;25.958;2023-05-07T11:39:27;4.63;;;2.42;;
22334;SDS011;11335;43.848;25.958;2023-05-07T11:42:34;5.05;;;2.65;;
22334;SDS011;11335;43.848;25.958;2023-05-07T11:45:23;6.13;;;2.45;;
22334;SDS011;11335;43.848;25.958;2023-05-07T11:48:11;3.75;;;2.10;;
22334;SDS011;11335;43.848;25.958;2023-05-07T11:51:02;13.88;;;2.85;;
22334;SDS011;11335;43.848;25.958;2023-05-07T11:53:49;4.97;;;2.70;;
22334;SDS011;11335;43.848;25.958;2023-05-07T11:56:35;5.13;;;2.38;;
22334;SDS011;11335;43.848;25.958;2023-05-07T11:59:21;4.57;;;2.35;;
22334;SDS011;11335;43.848;25.958;2023-05-07T12:02:07;5.00;;;2.30;;
22334;SDS011;11335;43.848;25.958;2023-05-07T12:04:53;7.38;;;2.60;;
22334;SDS011;11335;43.848;25.958;2023-05-07T12:07:40;6.70;;;2.30;;
22334;SDS011;11335;43.848;25.958;2023-05-07T12:10:26;3.47;;;2.35;;
22334;SDS011;11335;43.848;25.958;2023-05-07T12:13:15;5.20;;;1.98;;
22334;SDS011;11335;43.848;25.958;2023-05-07T12:16:04;5.10;;;2.42;;
22334;SDS011;11335;43.848;25.958;2023-05-07T12:18:51;4.13;;;2.40;;
22334;SDS011;11335;43.848;25.958;2023-05-07T12:21:40;3.92;;;2.42;;
22334;SDS011;11335;43.848;25.958;2023-05-07T12:24:26;3.03;;;2.08;;
22334;SDS011;11335;43.848;25.958;2023-05-07T12:27:12;6.88;;;2.60;;
22334;SDS011;11335;43.848;25.958;2023-05-07T12:29:59;3.72;;;2.40;;
22334;SDS011;11335;43.848;25.958;2023-05-07T12:32:45;7.47;;;2.50;;
22334;SDS011;11335;43.848;25.958;2023-05-07T12:35:31;5.28;;;2.30;;
22334;SDS011;11335;43.848;25.958;2023-05-07T12:38:21;8.63;;;2.58;;
22334;SDS011;11335;43.848;25.958;2023-05-07T12:41:08;5.18;;;2.53;;
22334;SDS011;11335;43.848;25.958;2023-05-07T12:43:56;5.30;;;2.60;;
22334;SDS011;11335;43.848;25.958;2023-05-07T12:46:42;3.65;;;2.38;;
22334;SDS011;11335;43.848;25.958;2023-05-07T12:49:28;4.55;;;2.75;;
22334;SDS011;11335;43.848;25.958;2023-05-07T12:52:14;3.78;;;2.08;;
22334;SDS011;11335;43.848;25.958;2023-05-07T12:55:04;4.65;;;2.30;;
22334;SDS011;11335;43.848;25.958;2023-05-07T12:57:52;5.55;;;2.60;;
22334;SDS011;11335;43.848;25.958;2023-05-07T13:00:38;5.95;;;2.50;;
22334;SDS011;11335;43.848;25.958;2023-05-07T13:03:26;3.38;;;2.30;;
22334;SDS011;11335;43.848;25.958;2023-05-07T13:06:12;5.72;;;2.67;;
22334;SDS011;11335;43.848;25.958;2023-05-07T13:08:58;5.35;;;2.78;;
22334;SDS011;11335;43.848;25.958;2023-05-07T13:11:43;5.30;;;2.40;;
22334;SDS011;11335;43.848;25.958;2023-05-07T13:14:29;3.20;;;2.40;;
22334;SDS011;11335;43.848;25.958;2023-05-07T13:17:15;6.45;;;2.70;;
22334;SDS011;11335;43.848;25.958;2023-05-07T13:20:01;3.97;;;2.60;;
22334;SDS011;11335;43.848;25.958;2023-05-07T13:22:46;4.95;;;2.40;;
22334;SDS011;11335;43.848;25.958;2023-05-07T13:25:32;4.75;;;2.78;;
22334;SDS011;11335;43.848;25.958;2023-05-07T13:28:18;4.63;;;2.55;;
22334;SDS011;11335;43.848;25.958;2023-05-07T13:31:03;5.90;;;2.50;;
22334;SDS011;11335;43.848;25.958;2023-05-07T13:33:49;5.47;;;2.80;;
22334;SDS011;11335;43.848;25.958;2023-05-07T13:36:35;4.35;;;2.40;;
22334;SDS011;11335;43.848;25.958;2023-05-07T13:39:23;4.82;;;2.60;;
22334;SDS011;11335;43.848;25.958;2023-05-07T13:42:08;3.00;;;2.30;;
22334;SDS011;11335;43.848;25.958;2023-05-07T13:44:54;3.38;;;2.40;;
22334;SDS011;11335;43.848;25.958;2023-05-07T13:47:40;4.20;;;2.65;;
22334;SDS011;11335;43.848;25.958;2023-05-07T13:50:27;3.55;;;2.47;;
22334;SDS011;11335;43.848;25.958;2023-05-07T13:53:14;3.55;;;2.13;;
22334;SDS011;11335;43.848;25.958;2023-05-07T13:56:03;3.65;;;2.50;;
22334;SDS011;11335;43.848;25.958;2023-05-07T13:58:49;2.92;;;2.20;;
22334;SDS011;11335;43.848;25.958;2023-05-07T14:01:35;8.18;;;2.85;;
22334;SDS011;11335;43.848;25.958;2023-05-07T14:04:21;6.70;;;2.90;;
22334;SDS011;11335;43.848;25.958;2023-05-07T14:07:07;8.00;;;2.60;;
22334;SDS011;11335;43.848;25.958;2023-05-07T14:09:52;5.20;;;2.88;;
22334;SDS011;11335;43.848;25.958;2023-05-07T14:12:38;8.82;;;2.88;;
22334;SDS011;11335;43.848;25.958;2023-05-07T14:15:24;4.03;;;2.70;;
22334;SDS011;11335;43.848;25.958;2023-05-07T14:18:10;5.53;;;2.83;;
22334;SDS011;11335;43.848;25.958;2023-05-07T14:20:55;4.40;;;2.55;;
22334;SDS011;11335;43.848;25.958;2023-05-07T14:23:41;3.67;;;2.22;;
22334;SDS011;11335;43.848;25.958;2023-05-07T14:26:27;6.25;;;2.70;;
22334;SDS011;11335;43.848;25.958;2023-05-07T14:29:13;6.70;;;2.90;;
22334;SDS011;11335;43.848;25.958;2023-05-07T14:32:01;4.82;;;2.65;;
22334;SDS011;11335;43.848;25.958;2023-05-07T14:34:48;8.13;;;3.10;;
22334;SDS011;11335;43.848;25.958;2023-05-07T14:37:34;4.90;;;2.70;;
22334;SDS011;11335;43.848;25.958;2023-05-07T14:40:19;7.75;;;2.90;;
22334;SDS011;11335;43.848;25.958;2023-05-07T14:43:05;5.97;;;2.70;;
22334;SDS011;11335;43.848;25.958;2023-05-07T14:45:51;8.43;;;2.53;;
22334;SDS011;11335;43.848;25.958;2023-05-07T14:48:37;4.78;;;3.13;;
22334;SDS011;11335;43.848;25.958;2023-05-07T14:51:23;9.00;;;3.55;;
22334;SDS011;11335;43.848;25.958;2023-05-07T14:54:09;4.25;;;2.65;;
22334;SDS011;11335;43.848;25.958;2023-05-07T14:56:54;4.47;;;2.67;;
22334;SDS011;11335;43.848;25.958;2023-05-07T14:59:41;7.60;;;2.97;;
22334;SDS011;11335;43.848;25.958;2023-05-07T15:02:27;3.67;;;2.40;;
22334;SDS011;11335;43.848;25.958;2023-05-07T15:05:13;7.40;;;2.90;;
22334;SDS011;11335;43.848;25.958;2023-05-07T15:07:59;4.80;;;2.58;;
22334;SDS011;11335;43.848;25.958;2023-05-07T15:10:45;3.75;;;2.60;;
22334;SDS011;11335;43.848;25.958;2023-05-07T15:13:31;3.83;;;2.70;;
22334;SDS011;11335;43.848;25.958;2023-05-07T15:16:17;3.83;;;2.80;;
22334;SDS011;11335;43.848;25.958;2023-05-07T15:19:03;4.22;;;2.70;;
22334;SDS011;11335;43.848;25.958;2023-05-07T15:21:49;5.45;;;3.05;;
22334;SDS011;11335;43.848;25.958;2023-05-07T15:24:35;7.82;;;3.20;;
22334;SDS011;11335;43.848;25.958;2023-05-07T15:27:20;5.53;;;2.85;;
22334;SDS011;11335;43.848;25.958;2023-05-07T15:30:06;4.55;;;2.90;;
22334;SDS011;11335;43.848;25.958;2023-05-07T15:32:55;4.53;;;2.53;;
22334;SDS011;11335;43.848;25.958;2023-05-07T15:35:41;4.60;;;2.50;;
22334;SDS011;11335;43.848;25.958;2023-05-07T15:38:26;5.45;;;2.55;;
22334;SDS011;11335;43.848;25.958;2023-05-07T15:41:12;6.68;;;2.58;;
22334;SDS011;11335;43.848;25.958;2023-05-07T15:43:58;5.15;;;2.78;;
22334;SDS011;11335;43.848;25.958;2023-05-07T15:46:44;4.53;;;2.97;;
22334;SDS011;11335;43.848;25.958;2023-05-07T15:49:29;5.43;;;2.97;;
22334;SDS011;11335;43.848;25.958;2023-05-07T15:52:15;6.18;;;3.00;;
22334;SDS011;11335;43.848;25.958;2023-05-07T15:55:01;4.43;;;2.47;;
22334;SDS011;11335;43.848;25.958;2023-05-07T15:57:47;6.95;;;3.13;;
22334;SDS011;11335;43.848;25.958;2023-05-07T16:00:33;8.13;;;3.20;;
22334;SDS011;11335;43.848;25.958;2023-05-07T16:03:20;8.98;;;3.08;;
22334;SDS011;11335;43.848;25.958;2023-05-07T16:06:08;5.85;;;2.83;;
22334;SDS011;11335;43.848;25.958;2023-05-07T16:08:56;4.50;;;2.90;;
22334;SDS011;11335;43.848;25.958;2023-05-07T16:11:42;4.45;;;2.42;;
22334;SDS011;11335;43.848;25.958;2023-05-07T16:14:28;4.60;;;2.83;;
22334;SDS011;11335;43.848;25.958;2023-05-07T16:17:13;7.25;;;2.78;;
22334;SDS011;11335;43.848;25.958;2023-05-07T16:19:59;6.85;;;3.00;;
22334;SDS011;11335;43.848;25.958;2023-05-07T16:22:46;5.88;;;2.92;;
22334;SDS011;11335;43.848;25.958;2023-05-07T16:25:32;6.22;;;2.60;;
22334;SDS011;11335;43.848;25.958;2023-05-07T16:28:17;7.05;;;2.85;;
22334;SDS011;11335;43.848;25.958;2023-05-07T16:31:03;5.03;;;2.70;;
22334;SDS011;11335;43.848;25.958;2023-05-07T16:33:49;4.50;;;2.80;;
22334;SDS011;11335;43.848;25.958;2023-05-07T16:36:35;4.20;;;2.85;;
22334;SDS011;11335;43.848;25.958;2023-05-07T16:39:21;6.75;;;3.78;;
22334;SDS011;11335;43.848;25.958;2023-05-07T16:42:06;7.38;;;3.22;;